Time;durP1;ratioP1;P1;durP2;ratioP2;P2;SDS_P1;SDS_P2;PMS_P1;PMS_P2;Temp;Humidity;BMP_temperature;BMP_pressure;BME280_temperature;BME280_humidity;BME280_pressure;Samples;Min_cycle;Max_cycle;Signal;HPM_P1;HPM_P2
2024/01/18 00:01:10;;;;;;;6.73;1.37;;;-3.00;99.90;;;;;;6309928;22;20086;-25
2024/01/18 00:03:39;;;;;;;13.33;2.03;;;-2.90;99.90;;;;;;6257165;22;20008;-25
2024/01/18 00:06:06;;;;;;;13.83;1.87;;;-2.80;99.90;;;;;;6282862;22;20042;-26
2024/01/18 00:08:31;;;;;;;10.00;1.63;;;-2.60;99.90;;;;;;6282814;22;20011;-25
2024/01/18 00:10:57;;;;;;;7.53;1.40;;;-2.50;99.90;;;;;;6283333;22;20072;-25
2024/01/18 00:13:23;;;;;;;17.97;2.73;;;-2.40;99.90;;;;;;6309765;22;20046;-25
2024/01/18 00:15:49;;;;;;;15.23;2.93;;;-2.50;99.90;;;;;;6309713;22;20349;-25
2024/01/18 00:18:15;;;;;;;11.23;2.13;;;-2.60;99.90;;;;;;6282440;22;20012;-25
2024/01/18 00:20:41;;;;;;;9.83;2.53;;;-2.80;99.90;;;;;;6282466;22;20018;-26
2024/01/18 00:23:06;;;;;;;9.60;1.53;;;-2.90;99.90;;;;;;6282291;22;20011;-25
2024/01/18 00:25:32;;;;;;;9.03;1.37;;;-3.00;99.90;;;;;;6309664;22;20015;-25
2024/01/18 00:27:58;;;;;;;7.63;1.53;;;-3.10;99.90;;;;;;6309645;22;20015;-25
2024/01/18 00:30:23;;;;;;;9.70;1.43;;;-3.20;99.90;;;;;;6310268;22;20022;-25
2024/01/18 00:32:49;;;;;;;9.10;2.13;;;-3.30;99.90;;;;;;6309892;22;20011;-25
2024/01/18 00:35:15;;;;;;;7.73;1.50;;;-3.30;99.90;;;;;;6309557;22;20414;-25
2024/01/18 00:37:41;;;;;;;8.50;1.87;;;-3.40;99.90;;;;;;6309139;22;20308;-26
2024/01/18 00:40:07;;;;;;;6.63;1.77;;;-3.30;99.90;;;;;;6309536;22;20022;-25
2024/01/18 00:42:33;;;;;;;7.17;1.53;;;-3.30;99.90;;;;;;6256588;22;20019;-25
2024/01/18 00:45:02;;;;;;;16.57;2.50;;;-3.30;99.90;;;;;;6309450;22;20054;-26
2024/01/18 00:47:27;;;;;;;9.53;1.77;;;-3.40;99.90;;;;;;6309297;22;20015;-25
2024/01/18 00:49:53;;;;;;;12.43;1.77;;;-3.50;99.90;;;;;;6281741;22;20015;-25
2024/01/18 00:52:19;;;;;;;6.27;2.50;;;-3.60;99.90;;;;;;6310023;22;20419;-25
2024/01/18 00:54:45;;;;;;;6.33;1.43;;;-3.60;99.90;;;;;;6309331;22;20011;-25
2024/01/18 00:57:11;;;;;;;5.90;1.60;;;-3.70;99.90;;;;;;6282235;22;20100;-25
2024/01/18 00:59:36;;;;;;;9.37;1.97;;;-3.70;99.90;;;;;;6309323;22;20019;-26
2024/01/18 01:02:03;;;;;;;8.53;1.27;;;-3.80;99.90;;;;;;6282131;22;20011;-26
2024/01/18 01:04:29;;;;;;;5.53;1.63;;;-3.80;99.90;;;;;;6256484;22;20322;-25
2024/01/18 01:06:55;;;;;;;5.03;1.90;;;-3.80;99.90;;;;;;6256764;22;20019;-26
2024/01/18 01:09:20;;;;;;;12.20;1.73;;;-3.90;99.90;;;;;;6283017;22;20019;-25
2024/01/18 01:11:46;;;;;;;10.30;2.20;;;-3.90;99.90;;;;;;6309927;22;20015;-25
2024/01/18 01:14:12;;;;;;;14.27;1.93;;;-3.90;99.90;;;;;;6309227;22;20038;-26
2024/01/18 01:16:38;;;;;;;11.53;1.47;;;-3.90;99.90;;;;;;6310070;22;20047;-25
2024/01/18 01:19:03;;;;;;;6.37;0.60;;;-3.80;99.90;;;;;;6281875;22;20465;-25
2024/01/18 01:21:29;;;;;;;10.53;0.90;;;-3.50;99.90;;;;;;6282592;22;20117;-25
2024/01/18 01:23:56;;;;;;;7.17;0.77;;;-3.40;99.90;;;;;;6282000;22;20019;-25
2024/01/18 01:26:22;;;;;;;4.50;0.80;;;-3.10;99.90;;;;;;6282876;22;20019;-25
2024/01/18 01:28:49;;;;;;;8.77;1.53;;;-3.00;99.90;;;;;;6281355;22;20572;-25
2024/01/18 01:31:15;;;;;;;4.33;0.77;;;-2.90;99.90;;;;;;6309121;22;20011;-25
2024/01/18 01:33:44;;;;;;;8.57;1.17;;;-2.90;99.90;;;;;;6309742;22;20011;-25
2024/01/18 01:36:09;;;;;;;8.00;0.80;;;-2.90;99.90;;;;;;6308904;22;20007;-25
2024/01/18 01:38:35;;;;;;;8.00;1.30;;;-2.90;99.90;;;;;;6281586;22;20018;-25
2024/01/18 01:41:02;;;;;;;7.97;0.90;;;-3.00;99.90;;;;;;6282011;22;20011;-25
2024/01/18 01:43:28;;;;;;;2.70;0.90;;;-2.90;99.90;;;;;;6308949;22;20011;-25
2024/01/18 01:45:54;;;;;;;7.37;1.30;;;-2.90;99.90;;;;;;6281540;22;20435;-25
2024/01/18 01:48:20;;;;;;;8.17;1.03;;;-2.90;99.90;;;;;;6281044;22;20011;-25
2024/01/18 01:50:47;;;;;;;10.03;1.30;;;-2.80;99.90;;;;;;6309247;22;20011;-25
2024/01/18 01:53:17;;;;;;;1.50;0.73;;;-3.00;99.90;;;;;;6257035;22;20066;-25
2024/01/18 01:55:44;;;;;;;5.83;1.33;;;-3.10;99.90;;;;;;6309763;22;20060;-25
2024/01/18 01:58:14;;;;;;;7.60;0.70;;;-3.40;99.90;;;;;;6308800;22;20322;-25
2024/01/18 02:00:40;;;;;;;7.17;0.87;;;-3.50;99.90;;;;;;6308841;22;20067;-25
2024/01/18 02:03:06;;;;;;;5.33;0.70;;;-3.70;99.90;;;;;;6308615;22;20057;-26
2024/01/18 02:05:31;;;;;;;7.77;0.90;;;-3.80;99.90;;;;;;6282359;22;20022;-25
2024/01/18 02:07:57;;;;;;;5.80;1.07;;;-3.80;99.90;;;;;;6308347;22;20022;-25
2024/01/18 02:10:23;;;;;;;4.93;1.00;;;-3.80;99.90;;;;;;6282194;22;20058;-25
2024/01/18 02:12:52;;;;;;;6.63;1.10;;;-4.00;99.90;;;;;;6281730;22;20015;-25
2024/01/18 02:15:19;;;;;;;4.90;0.80;;;-4.00;99.90;;;;;;6280997;22;20484;-25
2024/01/18 02:17:44;;;;;;;7.57;0.80;;;-4.20;99.90;;;;;;6282036;22;20022;-25
2024/01/18 02:20:11;;;;;;;7.33;1.17;;;-4.20;99.90;;;;;;6308595;22;20327;-25
2024/01/18 02:22:43;;;;;;;8.70;0.97;;;-4.30;99.90;;;;;;6308512;22;20015;-25
2024/01/18 02:25:27;;;;;;;7.97;1.07;;;-4.40;99.90;;;;;;6281697;22;20042;-25
2024/01/18 02:27:56;;;;;;;24.83;1.70;;;-4.40;99.90;;;;;;6309223;22;20102;-26
2024/01/18 02:30:23;;;;;;;4.83;1.00;;;-4.40;99.90;;;;;;6308457;22;20042;-25
2024/01/18 02:32:48;;;;;;;3.67;0.87;;;-4.40;99.90;;;;;;6281091;22;20419;-25
2024/01/18 02:35:15;;;;;;;6.43;1.47;;;-4.50;99.90;;;;;;6309008;22;20017;-26
2024/01/18 02:37:41;;;;;;;5.10;0.80;;;-4.50;99.90;;;;;;6308372;22;20015;-25
2024/01/18 02:40:07;;;;;;;12.20;1.87;;;-4.60;99.90;;;;;;6308355;22;20015;-25
2024/01/18 02:42:33;;;;;;;7.10;1.40;;;-4.60;99.90;;;;;;6309025;22;20015;-25
2024/01/18 02:45:02;;;;;;;5.10;1.10;;;-4.60;99.90;;;;;;6309043;22;20078;-25
2024/01/18 02:47:29;;;;;;;3.73;0.80;;;-4.40;99.90;;;;;;6281977;22;20018;-25
2024/01/18 02:49:56;;;;;;;4.00;1.90;;;-4.30;99.90;;;;;;6308539;22;20011;-25
2024/01/18 02:52:22;;;;;;;6.47;1.17;;;-4.10;99.90;;;;;;6308319;22;20076;-25
2024/01/18 02:54:47;;;;;;;5.87;1.30;;;-4.10;99.90;;;;;;6281908;22;20015;-25
2024/01/18 02:57:13;;;;;;;7.70;1.60;;;-3.60;99.90;;;;;;6308301;22;20326;-25
2024/01/18 02:59:39;;;;;;;5.10;1.30;;;-3.80;99.90;;;;;;6308970;22;20015;-24
2024/01/18 03:02:05;;;;;;;6.90;1.20;;;-4.20;99.90;;;;;;6280903;22;20358;-25
2024/01/18 03:04:31;;;;;;;14.30;2.63;;;-4.30;99.90;;;;;;6308250;22;20015;-25
2024/01/18 03:06:57;;;;;;;8.07;1.53;;;-4.50;99.90;;;;;;6281016;22;20317;-25
2024/01/18 03:09:23;;;;;;;7.13;1.10;;;-4.60;99.90;;;;;;6281907;22;20019;-25
2024/01/18 03:11:49;;;;;;;8.90;1.23;;;-4.60;99.90;;;;;;6308292;22;20097;-25
2024/01/18 03:14:15;;;;;;;3.70;1.20;;;-4.60;99.90;;;;;;6255391;22;20039;-25
2024/01/18 03:16:43;;;;;;;6.67;0.97;;;-4.50;99.90;;;;;;6308090;22;20086;-25
2024/01/18 03:19:13;;;;;;;3.83;1.03;;;-4.40;99.90;;;;;;6280882;22;20015;-25
2024/01/18 03:21:39;;;;;;;6.87;1.40;;;-4.30;99.90;;;;;;6308074;22;20011;-25
2024/01/18 03:24:06;;;;;;;4.57;1.00;;;-4.20;99.90;;;;;;6308068;22;20019;-25
2024/01/18 03:26:32;;;;;;;3.03;1.10;;;-4.00;99.90;;;;;;6308031;22;20082;-25
2024/01/18 03:28:58;;;;;;;5.43;1.10;;;-4.00;99.90;;;;;;6309932;22;20054;-25
2024/01/18 03:31:24;;;;;;;6.13;1.67;;;-4.00;99.90;;;;;;6310516;22;20082;-25
2024/01/18 03:33:50;;;;;;;8.50;1.07;;;-3.80;99.90;;;;;;6282814;22;20476;-25
2024/01/18 03:36:16;;;;;;;4.10;0.90;;;-3.60;99.90;;;;;;6282886;22;20086;-25
2024/01/18 03:38:41;;;;;;;7.50;1.63;;;-3.40;99.90;;;;;;6310175;22;20022;-25
2024/01/18 03:41:07;;;;;;;7.83;2.37;;;-3.20;99.90;;;;;;6310155;22;20365;-25
2024/01/18 03:43:33;;;;;;;6.00;1.60;;;-3.00;99.90;;;;;;6282721;22;20319;-24
2024/01/18 03:45:58;;;;;;;6.93;0.97;;;-2.80;99.90;;;;;;6311126;22;20014;-25
2024/01/18 03:48:24;;;;;;;3.93;0.40;;;-2.30;99.90;;;;;;6309937;22;20376;-25
2024/01/18 03:50:50;;;;;;;5.63;0.83;;;-2.20;99.90;;;;;;6282493;22;20458;-25
2024/01/18 03:53:16;;;;;;;4.47;0.43;;;-2.00;99.90;;;;;;6309988;22;20019;-24
2024/01/18 03:55:42;;;;;;;4.47;0.57;;;-1.90;99.90;;;;;;6309917;22;20007;-25
2024/01/18 03:58:08;;;;;;;5.57;0.60;;;-1.90;99.90;;;;;;6310634;22;20303;-25
2024/01/18 04:00:34;;;;;;;4.53;0.50;;;-2.00;99.90;;;;;;6309967;22;20015;-25
2024/01/18 04:03:00;;;;;;;2.87;0.40;;;-2.10;99.90;;;;;;6310908;22;20018;-25
2024/01/18 04:05:25;;;;;;;8.83;0.53;;;-2.30;99.90;;;;;;6309834;22;20499;-25
2024/01/18 04:07:52;;;;;;;7.03;1.07;;;-2.40;99.90;;;;;;6309817;22;20015;-24
2024/01/18 04:10:17;;;;;;;10.53;0.70;;;-2.50;99.90;;;;;;6309807;22;20011;-25
2024/01/18 04:12:43;;;;;;;6.40;1.93;;;-2.50;99.90;;;;;;6282480;22;20094;-25
2024/01/18 04:15:10;;;;;;;4.00;0.67;;;-2.60;99.90;;;;;;6257065;22;20326;-25
2024/01/18 04:17:37;;;;;;;5.10;0.77;;;-2.80;99.90;;;;;;6309751;22;20296;-25
2024/01/18 04:20:05;;;;;;;6.97;0.67;;;-2.90;99.90;;;;;;6310807;22;20022;-25
2024/01/18 04:22:32;;;;;;;4.47;0.60;;;-3.00;99.90;;;;;;6309736;22;20077;-25
2024/01/18 04:24:58;;;;;;;3.23;0.30;;;-3.10;99.90;;;;;;6309654;22;20049;-25
2024/01/18 04:27:23;;;;;;;6.97;0.70;;;-3.20;99.90;;;;;;6282282;22;20015;-25
2024/01/18 04:29:49;;;;;;;7.53;0.60;;;-3.30;99.90;;;;;;6309598;22;20015;-25
2024/01/18 04:32:15;;;;;;;4.47;0.57;;;-3.40;99.90;;;;;;6309561;22;20057;-25
2024/01/18 04:34:42;;;;;;;5.73;0.50;;;-3.50;99.90;;;;;;6309862;22;20015;-25
2024/01/18 04:37:08;;;;;;;6.87;1.10;;;-3.60;99.90;;;;;;6283211;22;20015;-25
2024/01/18 04:39:34;;;;;;;4.63;0.80;;;-3.70;99.90;;;;;;6309119;22;20018;-25
2024/01/18 04:41:59;;;;;;;2.97;0.47;;;-3.60;99.90;;;;;;6309469;22;20505;-25
2024/01/18 04:44:25;;;;;;;11.43;0.70;;;-3.40;99.90;;;;;;6309815;22;20086;-25
2024/01/18 04:46:51;;;;;;;6.43;0.70;;;-3.30;99.90;;;;;;6309419;22;20016;-25
2024/01/18 04:49:17;;;;;;;8.27;1.17;;;-3.00;99.90;;;;;;6309063;22;20023;-24
2024/01/18 04:51:42;;;;;;;3.07;0.43;;;-2.90;99.90;;;;;;6257856;22;20430;-25
2024/01/18 04:54:08;;;;;;;2.13;0.53;;;-2.80;99.90;;;;;;6309034;22;20014;-24
2024/01/18 04:56:35;;;;;;;4.97;0.77;;;-2.90;99.90;;;;;;6309338;22;20008;-25
2024/01/18 04:59:02;;;;;;;7.20;0.57;;;-2.90;99.90;;;;;;6282003;22;20007;-24
2024/01/18 05:01:27;;;;;;;2.83;1.27;;;-2.90;99.90;;;;;;6309392;22;20087;-25
2024/01/18 05:03:53;;;;;;;3.17;0.30;;;-2.80;99.90;;;;;;6310067;22;20446;-25
2024/01/18 05:06:19;;;;;;;9.07;1.53;;;-3.00;99.90;;;;;;6309638;22;20345;-25
2024/01/18 05:08:45;;;;;;;8.60;1.10;;;-3.10;99.90;;;;;;6282779;22;20086;-24
2024/01/18 05:11:11;;;;;;;5.07;0.50;;;-3.20;99.90;;;;;;6309191;22;20050;-24
2024/01/18 05:13:37;;;;;;;7.60;0.67;;;-3.40;99.90;;;;;;6309254;22;20023;-25
2024/01/18 05:16:03;;;;;;;5.50;0.30;;;-3.40;99.90;;;;;;6309114;22;20042;-25
2024/01/18 05:18:29;;;;;;;1.90;0.40;;;-3.40;99.90;;;;;;6309179;22;20341;-25
2024/01/18 05:20:55;;;;;;;4.27;0.30;;;-3.50;99.90;;;;;;6309224;22;20021;-25
2024/01/18 05:23:20;;;;;;;3.00;0.43;;;-3.60;99.90;;;;;;6309101;22;20051;-24
2024/01/18 05:25:46;;;;;;;4.07;0.50;;;-3.80;99.90;;;;;;6281866;22;20007;-25
2024/01/18 05:28:12;;;;;;;4.27;0.40;;;-3.80;99.90;;;;;;6281899;22;20369;-25
2024/01/18 05:30:37;;;;;;;3.87;0.40;;;-3.70;99.90;;;;;;6309756;22;20015;-25
2024/01/18 05:33:04;;;;;;;10.00;0.60;;;-3.60;99.90;;;;;;6282044;22;20450;-25
2024/01/18 05:35:30;;;;;;;6.13;0.30;;;-3.50;99.90;;;;;;6308930;22;20314;-24
2024/01/18 05:37:56;;;;;;;2.83;0.50;;;-3.50;99.90;;;;;;6308962;22;20011;-25
2024/01/18 05:40:22;;;;;;;2.77;0.27;;;-3.40;99.90;;;;;;6308922;22;20011;-25
2024/01/18 05:42:48;;;;;;;10.23;0.57;;;-3.20;99.90;;;;;;6309716;22;20292;-25
2024/01/18 05:45:14;;;;;;;9.17;1.70;;;-3.10;99.90;;;;;;6308950;22;20053;-25
2024/01/18 05:47:40;;;;;;;8.53;0.97;;;-2.80;99.90;;;;;;6308720;22;20015;-25
2024/01/18 05:50:07;;;;;;;9.53;0.70;;;-2.70;99.90;;;;;;6256213;22;20073;-24
2024/01/18 05:52:33;;;;;;;8.20;0.63;;;-2.50;99.90;;;;;;6309220;22;20017;-24
2024/01/18 05:54:58;;;;;;;6.70;0.77;;;-2.40;99.90;;;;;;6255895;22;20050;-25
2024/01/18 05:57:25;;;;;;;5.97;0.70;;;-2.40;99.90;;;;;;6308760;22;20034;-25
2024/01/18 05:59:50;;;;;;;4.60;0.60;;;-2.50;99.90;;;;;;6282408;22;20017;-25
2024/01/18 06:02:16;;;;;;;3.90;0.60;;;-2.40;99.90;;;;;;6281716;22;20061;-24
2024/01/18 06:04:42;;;;;;;4.60;0.50;;;-2.40;99.90;;;;;;6308994;22;20030;-25
2024/01/18 06:07:08;;;;;;;5.00;0.80;;;-2.50;99.90;;;;;;6281562;22;20435;-25
2024/01/18 06:09:33;;;;;;;5.57;0.40;;;-2.50;99.90;;;;;;6308619;22;20019;-25
2024/01/18 06:11:59;;;;;;;3.73;0.60;;;-2.50;99.90;;;;;;6281427;22;20011;-25
2024/01/18 06:14:25;;;;;;;8.37;0.80;;;-2.50;99.90;;;;;;6282376;22;20023;-25
2024/01/18 06:16:50;;;;;;;3.70;0.40;;;-2.50;99.90;;;;;;6281309;22;20011;-24
2024/01/18 06:19:16;;;;;;;4.27;0.37;;;-2.50;99.90;;;;;;6255736;22;20019;-25
2024/01/18 06:21:42;;;;;;;1.67;0.40;;;-2.40;99.90;;;;;;6308590;22;20018;-24
2024/01/18 06:24:08;;;;;;;6.30;2.03;;;-2.40;99.90;;;;;;6281186;22;20430;-25
2024/01/18 06:26:34;;;;;;;5.23;1.40;;;-2.40;99.90;;;;;;6309119;22;20022;-25
2024/01/18 06:29:00;;;;;;;6.87;2.40;;;-2.40;99.90;;;;;;6308844;22;20361;-25
2024/01/18 06:31:27;;;;;;;3.70;0.80;;;-2.30;99.90;;;;;;6281163;22;20011;-24
2024/01/18 06:33:53;;;;;;;4.47;0.80;;;-2.20;99.90;;;;;;6308369;22;20042;-25
2024/01/18 06:36:19;;;;;;;3.37;1.17;;;-2.30;99.90;;;;;;6281354;22;20042;-24
2024/01/18 06:38:45;;;;;;;1.67;0.30;;;-2.40;99.90;;;;;;6308427;22;20022;-24
2024/01/18 06:41:11;;;;;;;4.23;0.30;;;-2.60;99.90;;;;;;6308357;22;20499;-25
2024/01/18 06:43:37;;;;;;;6.43;0.50;;;-2.80;99.90;;;;;;6255865;22;20023;-25
2024/01/18 06:46:03;;;;;;;4.30;0.20;;;-2.60;99.90;;;;;;6308702;22;20011;-25
2024/01/18 06:48:29;;;;;;;7.40;0.70;;;-2.50;99.90;;;;;;6308905;22;20441;-25
2024/01/18 06:50:55;;;;;;;1.93;0.30;;;-2.30;99.90;;;;;;6308101;22;20425;-25
2024/01/18 06:53:21;;;;;;;4.13;0.40;;;-2.10;99.90;;;;;;6308982;22;20096;-25
2024/01/18 06:55:47;;;;;;;3.30;0.40;;;-2.00;99.90;;;;;;6281815;22;20418;-25
2024/01/18 06:58:13;;;;;;;5.60;0.50;;;-1.90;99.90;;;;;;6308963;22;20022;-25
2024/01/18 07:00:38;;;;;;;3.43;1.07;;;-1.90;99.90;;;;;;6281007;22;20368;-25
2024/01/18 07:03:07;;;;;;;3.67;0.40;;;-1.90;99.90;;;;;;6307933;22;20015;-25
2024/01/18 07:05:33;;;;;;;3.93;0.30;;;-2.20;99.90;;;;;;6282164;22;20010;-24
2024/01/18 07:07:59;;;;;;;2.93;0.47;;;-2.40;99.90;;;;;;6308542;22;20011;-24
2024/01/18 07:10:24;;;;;;;3.93;0.50;;;-2.50;99.90;;;;;;6308130;22;20022;-25
2024/01/18 07:12:50;;;;;;;1.47;0.20;;;-2.60;99.90;;;;;;6309236;22;20441;-25
2024/01/18 07:15:16;;;;;;;4.47;1.00;;;-2.70;99.90;;;;;;6280889;22;20011;-25
2024/01/18 07:17:41;;;;;;;4.83;0.10;;;-2.70;99.90;;;;;;6308434;22;20065;-25
2024/01/18 07:20:08;;;;;;;5.97;0.50;;;-2.80;99.90;;;;;;6308089;22;20076;-25
2024/01/18 07:22:33;;;;;;;8.93;0.53;;;-2.80;99.90;;;;;;6308128;22;20026;-25
2024/01/18 07:24:59;;;;;;;2.13;0.30;;;-2.90;99.90;;;;;;6255244;22;20019;-25
2024/01/18 07:27:25;;;;;;;5.07;0.47;;;-2.90;99.90;;;;;;6308100;22;20398;-25
2024/01/18 07:29:51;;;;;;;2.87;0.40;;;-2.50;99.90;;;;;;6308168;22;20422;-25
2024/01/18 07:32:17;;;;;;;2.10;0.30;;;-2.30;99.90;;;;;;6280748;22;20007;-25
2024/01/18 07:34:43;;;;;;;1.10;0.30;;;-2.30;99.90;;;;;;6308612;22;20046;-25
2024/01/18 07:37:12;;;;;;;3.60;0.57;;;-2.30;99.90;;;;;;6307706;22;20046;-24
2024/01/18 07:39:38;;;;;;;3.73;0.23;;;-2.30;99.90;;;;;;6257022;22;20345;-25
2024/01/18 07:42:04;;;;;;;6.17;0.43;;;-2.30;99.90;;;;;;6307981;22;20023;-24
2024/01/18 07:44:29;;;;;;;3.50;0.20;;;-2.30;99.90;;;;;;6280932;22;20011;-25
2024/01/18 07:46:55;;;;;;;0.53;0.13;;;-2.30;99.90;;;;;;6280848;22;20022;-24
2024/01/18 07:49:21;;;;;;;1.43;0.10;;;-2.40;99.90;;;;;;6307763;22;20015;-24
2024/01/18 07:51:47;;;;;;;1.03;0.00;;;-2.50;99.90;;;;;;6308017;22;20499;-25
2024/01/18 07:54:13;;;;;;;0.57;0.07;;;-2.70;99.90;;;;;;6280730;22;20015;-25
2024/01/18 07:56:39;;;;;;;1.67;0.10;;;-2.80;99.90;;;;;;6255127;22;20073;-25
2024/01/18 07:59:05;;;;;;;2.83;0.07;;;-2.90;99.90;;;;;;6308007;22;20047;-25
2024/01/18 08:01:30;;;;;;;1.97;0.10;;;-3.10;99.90;;;;;;6280242;22;20015;-25
2024/01/18 08:03:56;;;;;;;5.10;0.30;;;-3.20;99.90;;;;;;6280748;22;20023;-25
2024/01/18 08:06:22;;;;;;;2.63;0.60;;;-3.40;99.90;;;;;;6255520;22;20011;-25
2024/01/18 08:08:48;;;;;;;6.13;1.07;;;-3.50;99.90;;;;;;6307896;22;20034;-25
2024/01/18 08:11:14;;;;;;;7.53;1.23;;;-3.50;99.90;;;;;;6255083;22;20068;-25
2024/01/18 08:13:40;;;;;;;11.57;2.13;;;-3.40;99.90;;;;;;6280597;22;20068;-25
2024/01/18 08:16:09;;;;;;;4.03;0.50;;;-3.20;99.90;;;;;;6310187;22;20015;-25
2024/01/18 08:18:36;;;;;;;3.67;0.47;;;-3.00;99.90;;;;;;6282544;22;20074;-25
2024/01/18 08:21:03;;;;;;;4.17;0.50;;;-2.80;99.90;;;;;;6309755;22;20086;-25
2024/01/18 08:23:28;;;;;;;5.13;0.50;;;-2.70;99.90;;;;;;6309684;22;20015;-25
2024/01/18 08:25:54;;;;;;;4.43;0.50;;;-2.10;99.90;;;;;;6256766;22;20083;-25
2024/01/18 08:28:21;;;;;;;3.10;0.40;;;-2.40;99.90;;;;;;6282827;22;20022;-25
2024/01/18 08:30:47;;;;;;;5.73;0.37;;;-2.40;99.90;;;;;;6309973;22;20011;-25
2024/01/18 08:33:14;;;;;;;3.30;1.13;;;-2.40;99.90;;;;;;6309652;22;20022;-25
2024/01/18 08:35:40;;;;;;;3.93;0.53;;;-2.40;99.90;;;;;;6282984;22;20034;-25
2024/01/18 08:38:06;;;;;;;10.17;2.43;;;-2.40;99.90;;;;;;6257026;22;20287;-25
2024/01/18 08:40:33;;;;;;;4.53;0.67;;;-2.40;99.90;;;;;;6309534;22;20053;-25
2024/01/18 08:42:59;;;;;;;5.10;1.10;;;-2.50;99.90;;;;;;6309531;22;20053;-25
2024/01/18 08:45:31;;;;;;;5.93;0.57;;;-2.40;99.90;;;;;;6256597;22;20423;-25
2024/01/18 08:47:57;;;;;;;7.77;1.23;;;-2.30;99.90;;;;;;6309389;22;20015;-25
2024/01/18 08:50:24;;;;;;;4.07;0.80;;;-2.20;99.90;;;;;;6309680;22;20080;-25
2024/01/18 08:52:53;;;;;;;2.97;0.80;;;-2.10;99.90;;;;;;6282158;22;20015;-25
2024/01/18 08:55:19;;;;;;;2.23;0.40;;;-2.20;99.90;;;;;;6309314;22;20011;-25
2024/01/18 08:57:45;;;;;;;4.00;0.57;;;-2.00;99.90;;;;;;6309385;22;20018;-25
2024/01/18 09:00:17;;;;;;;4.17;0.90;;;-2.20;99.90;;;;;;6309654;22;20092;-26
2024/01/18 09:02:46;;;;;;;3.57;0.70;;;-2.10;99.90;;;;;;6257756;22;20015;-25
2024/01/18 09:05:12;;;;;;;4.27;0.77;;;-1.90;99.90;;;;;;6309327;22;20008;-25
2024/01/18 09:07:39;;;;;;;7.40;2.00;;;-1.70;99.90;;;;;;6308069;22;20043;-25
2024/01/18 09:10:07;;;;;;;4.17;0.70;;;-1.40;99.90;;;;;;6309873;22;20022;-25
2024/01/18 09:12:32;;;;;;;2.97;0.50;;;-1.20;99.90;;;;;;6309248;22;20011;-25
2024/01/18 09:14:58;;;;;;;13.57;1.17;;;-1.20;99.90;;;;;;6309883;22;20544;-25
2024/01/18 09:17:24;;;;;;;3.83;0.63;;;-1.20;99.90;;;;;;6309039;22;20433;-25
2024/01/18 09:19:49;;;;;;;2.57;1.00;;;-1.20;99.90;;;;;;6281856;22;20050;-24
2024/01/18 09:22:15;;;;;;;3.50;0.55;;;-1.00;99.90;;;;;;6282164;22;20076;-25
2024/01/18 09:24:44;;;;;;;2.57;0.80;;;-1.00;99.90;;;;;;6308996;22;20019;-24
2024/01/18 09:27:11;;;;;;;9.70;1.17;;;-0.80;99.90;;;;;;6309294;22;20073;-24
2024/01/18 09:29:37;;;;;;;5.53;1.17;;;-0.80;99.90;;;;;;6281665;22;20057;-24
2024/01/18 09:32:04;;;;;;;3.83;1.00;;;-0.70;99.90;;;;;;6309009;22;20015;-24
2024/01/18 09:34:29;;;;;;;7.40;1.00;;;-0.70;99.90;;;;;;6281675;22;20044;-24
2024/01/18 09:36:56;;;;;;;7.03;0.90;;;-0.70;99.90;;;;;;6308849;22;20057;-24
2024/01/18 09:39:22;;;;;;;7.50;1.13;;;-0.60;99.90;;;;;;6281389;22;20011;-24
2024/01/18 09:41:55;;;;;;;6.37;1.10;;;-0.60;99.90;;;;;;6308988;22;20018;-24
2024/01/18 09:44:26;;;;;;;9.95;1.48;;;-0.50;99.90;;;;;;6309793;22;20007;-24
2024/01/18 09:46:53;;;;;;;11.07;1.58;;;-0.40;99.90;;;;;;6282642;22;20050;-24
2024/01/18 09:49:19;;;;;;;4.32;1.10;;;-0.40;99.90;;;;;;6255870;22;20086;-24
2024/01/18 09:51:46;;;;;;;6.82;0.90;;;-0.40;99.90;;;;;;6282693;22;20015;-24
2024/01/18 09:54:12;;;;;;;6.88;0.90;;;-0.40;99.90;;;;;;6308776;22;20019;-25
2024/01/18 09:56:51;;;;;;;2.25;0.75;;;-0.40;99.90;;;;;;6281422;22;20018;-24
2024/01/18 09:59:18;;;;;;;4.40;0.90;;;-0.50;99.90;;;;;;6281875;22;20292;-24
2024/01/18 10:01:48;;;;;;;8.60;0.95;;;-0.60;99.90;;;;;;6281398;22;20021;-25
2024/01/18 10:04:18;;;;;;;7.20;1.08;;;-0.60;99.90;;;;;;6308659;22;20015;-24
2024/01/18 10:06:43;;;;;;;15.23;1.38;;;-0.50;99.90;;;;;;6308737;22;20022;-24
2024/01/18 10:09:14;;;;;;;4.33;0.90;;;-0.60;99.90;;;;;;6308691;22;20015;-25
2024/01/18 10:11:41;;;;;;;5.23;0.77;;;-0.40;99.90;;;;;;6309636;22;20350;-25
2024/01/18 10:14:07;;;;;;;7.07;1.07;;;-0.40;99.90;;;;;;6281383;22;20153;-25
2024/01/18 10:16:36;;;;;;;3.78;0.98;;;-0.40;99.90;;;;;;6308833;22;20422;-25
2024/01/18 10:19:07;;;;;;;4.40;0.77;;;-0.30;99.90;;;;;;6308532;22;20018;-25
2024/01/18 10:21:34;;;;;;;6.47;1.03;;;0.00;99.90;;;;;;6308575;22;20051;-25
2024/01/18 10:24:03;;;;;;;7.70;0.88;;;-0.10;99.90;;;;;;6281957;22;20354;-25
2024/01/18 10:26:31;;;;;;;6.35;0.85;;;0.20;99.90;;;;;;6309563;22;20018;-25
2024/01/18 10:28:58;;;;;;;4.70;1.10;;;0.70;99.90;;;;;;6281253;22;20051;-25
2024/01/18 10:31:24;;;;;;;3.47;0.95;;;0.40;99.90;;;;;;6281151;22;20015;-25
2024/01/18 10:33:54;;;;;;;1.95;0.47;;;0.50;99.90;;;;;;6282174;22;20405;-25
2024/01/18 10:36:21;;;;;;;4.03;1.13;;;0.50;99.90;;;;;;6308308;22;20007;-25
2024/01/18 10:38:47;;;;;;;7.30;0.55;;;0.50;99.90;;;;;;6308135;22;20015;-25
2024/01/18 10:41:19;;;;;;;3.13;0.82;;;0.80;99.90;;;;;;6281196;22;20011;-25
2024/01/18 10:43:47;;;;;;;4.20;1.08;;;0.90;99.90;;;;;;6309429;22;20015;-25
2024/01/18 10:46:14;;;;;;;4.97;0.60;;;1.00;99.90;;;;;;6308315;22;20015;-25
2024/01/18 10:48:46;;;;;;;3.95;0.90;;;0.70;99.90;;;;;;6308224;22;20022;-25
2024/01/18 10:51:12;;;;;;;2.55;0.70;;;0.70;99.90;;;;;;6308092;22;20019;-25
2024/01/18 10:53:38;;;;;;;7.78;1.30;;;0.70;99.90;;;;;;6308311;22;20023;-25
2024/01/18 10:56:04;;;;;;;3.55;0.70;;;0.80;99.90;;;;;;6255493;22;20011;-25
2024/01/18 10:58:30;;;;;;;3.85;0.50;;;1.00;99.90;;;;;;6308248;22;20015;-24
2024/01/18 11:00:57;;;;;;;7.55;0.90;;;1.00;99.90;;;;;;6255819;22;20091;-24
2024/01/18 11:03:23;;;;;;;3.67;0.80;;;1.20;99.90;;;;;;6308969;22;20054;-24
2024/01/18 11:05:49;;;;;;;6.57;0.85;;;1.10;99.90;;;;;;6282056;22;20011;-24
2024/01/18 11:08:17;;;;;;;3.08;0.80;;;1.20;99.90;;;;;;6281068;22;20048;-24
2024/01/18 11:10:45;;;;;;;7.82;3.10;;;1.40;99.90;;;;;;6308206;22;20090;-24
2024/01/18 11:13:11;;;;;;;5.80;0.80;;;1.30;99.90;;;;;;6256231;22;20311;-24
2024/01/18 11:15:41;;;;;;;1.95;0.73;;;1.40;99.90;;;;;;6281517;22;20363;-24
2024/01/18 11:18:12;;;;;;;3.72;0.60;;;1.50;99.90;;;;;;6280732;22;20011;-24
2024/01/18 11:21:00;;;;;;;2.50;0.57;;;1.50;99.90;;;;;;6308088;22;20007;-24
2024/01/18 11:23:27;;;;;;;7.88;1.02;;;1.60;99.90;;;;;;6280868;22;20054;-24
2024/01/18 11:25:53;;;;;;;3.00;0.95;;;1.60;99.90;;;;;;6308072;22;20011;-24
2024/01/18 11:28:27;;;;;;;12.15;1.15;;;1.80;99.90;;;;;;6307680;22;20568;-24
2024/01/18 11:30:53;;;;;;;8.43;0.90;;;1.80;99.90;;;;;;6255207;22;20069;-24
2024/01/18 11:33:21;;;;;;;5.53;1.10;;;1.90;99.90;;;;;;6308051;22;20331;-24
2024/01/18 11:35:50;;;;;;;5.57;0.90;;;2.00;99.90;;;;;;6308709;22;20038;-25
2024/01/18 11:38:21;;;;;;;7.07;0.55;;;2.10;99.90;;;;;;6230211;22;20013;-24
2024/01/18 11:40:57;;;;;;;4.72;1.65;;;2.10;99.90;;;;;;6308699;22;20053;-25
2024/01/18 11:43:54;;;;;;;5.28;0.30;;;2.40;99.90;;;;;;6308007;22;20023;-26
2024/01/18 11:46:47;;;;;;;3.75;0.50;;;2.60;99.90;;;;;;6308561;22;20083;-27
2024/01/18 11:49:14;;;;;;;7.97;0.60;;;2.80;99.90;;;;;;6304852;22;20423;-28
2024/01/18 11:51:43;;;;;;;7.55;0.63;;;2.70;99.90;;;;;;6310474;22;20442;-28
2024/01/18 11:54:12;;;;;;;7.03;1.42;;;2.60;99.90;;;;;;6283040;22;20015;-29
2024/01/18 11:56:40;;;;;;;4.10;0.55;;;2.50;99.90;;;;;;6257116;22;20011;-29
2024/01/18 11:59:08;;;;;;;4.93;0.82;;;2.40;99.90;;;;;;6283518;22;20007;-29
2024/01/18 12:01:34;;;;;;;5.70;0.52;;;2.70;99.90;;;;;;6282517;22;20015;-29
2024/01/18 12:04:00;;;;;;;4.15;0.40;;;2.40;99.90;;;;;;6310589;22;20338;-29
2024/01/18 12:06:28;;;;;;;4.00;0.82;;;2.60;99.90;;;;;;6309857;22;20011;-29
2024/01/18 12:08:54;;;;;;;4.93;0.98;;;2.40;99.90;;;;;;6310168;22;20081;-31
2024/01/18 12:11:20;;;;;;;2.90;0.30;;;2.50;99.90;;;;;;6310841;22;20082;-31
2024/01/18 12:13:47;;;;;;;3.67;0.50;;;2.40;99.90;;;;;;6310734;22;20011;-32
2024/01/18 12:16:13;;;;;;;5.07;0.45;;;2.40;99.90;;;;;;6282524;22;20055;-31
2024/01/18 12:18:43;;;;;;;3.95;1.00;;;2.40;99.90;;;;;;6257078;22;20449;-32
2024/01/18 12:21:09;;;;;;;11.68;1.67;;;2.40;99.90;;;;;;6309707;22;20046;-32
2024/01/18 12:23:35;;;;;;;2.83;0.40;;;2.40;99.90;;;;;;6309721;22;20018;-34
2024/01/18 12:26:02;;;;;;;6.15;0.70;;;2.40;99.90;;;;;;6257963;22;20023;-33
2024/01/18 12:28:28;;;;;;;4.78;0.35;;;2.40;99.90;;;;;;6283379;22;20043;-34
2024/01/18 12:31:00;;;;;;;8.80;0.68;;;2.50;99.90;;;;;;6256857;22;20015;-34
2024/01/18 12:33:31;;;;;;;7.73;0.77;;;2.50;99.90;;;;;;6282499;22;20015;-37
2024/01/18 12:35:58;;;;;;;6.97;0.70;;;2.50;99.90;;;;;;6309479;22;20245;-38
2024/01/18 12:38:24;;;;;;;3.17;0.50;;;2.60;99.90;;;;;;6283313;22;20022;-41
2024/01/18 12:40:52;;;;;;;7.95;1.45;;;2.70;99.90;;;;;;6282517;22;20046;-43
2024/01/18 12:43:18;;;;;;;3.10;0.43;;;3.40;99.90;;;;;;6282203;22;20026;-44
2024/01/18 12:45:52;;;;;;;3.40;0.60;;;4.40;99.90;;;;;;6281972;22;20011;-44